AirNav   Air Wisconsin Up To $57,000 Bonus
 
 1938 users online  

MI96 Detroit Border Patrol Heliport
Detroit, Michigan, USA

GOING TO DETROIT?


FAA INFORMATION EFFECTIVE 02 JANUARY 2020

Location

FAA Identifier: MI96
Lat/Long: 42-22-02.0000N 082-58-03.0000W
42-22.033333N 082-58.050000W
42.3672222,-82.9675000
(estimated)
Elevation: 586 ft. / 179 m
Time zone: UTC -5 (UTC -4 during Daylight Saving Time)
Zip code: 48214

Heliport Operations

Heliport use: Private use. Permission required prior to landing
Activation date: 11/2016
Control tower: no
ARTCC: CLEVELAND CENTER
FSS: LANSING FLIGHT SERVICE STATION
Attendance: 
Segmented circle: no

Heliport Communications

WX ASOS at DET (3 nm NW): PHONE 313-371-9696
WX AWOS-3 at VLL (14 nm NW): 119.475 (248-288-4649)
WX AWOS-3 at ONZ (18 nm SW): 119.675 (734-692-9686)
WX ASOS at DTW (19 nm SW): 133.675 (734-955-5015)

Nearby radio navigation aids

VOR radial/distance  VOR name  Freq  Var
YQGr325/9.4WINDSOR VOR/DME113.8006W
DXOr068/20.0DETROIT VOR/DME113.4006W
SVMr098/27.9SALEM VORTAC114.3003W
CRLr052/29.0CARLETON VOR/DME115.7003W

 
NDB name  Hdg/Dist  Freq  Var  ID
GROSSE ILE034/18.041907WRYS .-. -.-- ...

Heliport Services

Runway Information

Helipad H1

Dimensions: 60 x 60 ft. / 18 x 18 m
Surface: concrete
Traffic pattern: leftleft

Heliport Ownership and Management from official FAA records

Ownership: Privately-owned
Owner: U.S. BORDER PATROL
11700 E. JEFFERSON AVE
DETROIT, MI 48214
Manager: COREY BAMMER
11700 E. JEFFERSON AVE
DETROIT, MI 48214
Phone 313-926-4700

Additional Remarks

FOR CD CTC CLEVELAND ARTCC AT 440-774-0490.

Instrument Procedures

There are no published instrument procedures at MI96.

Some nearby airports with instrument procedures:

KDET - Coleman A Young Municipal Airport (3 nm NW)
KVLL - Oakland/Troy Airport (14 nm NW)
KMTC - Selfridge Air National Guard Base (16 nm N)
KONZ - Grosse Ile Municipal Airport (18 nm SW)
KDTW - Detroit Metropolitan Wayne County Airport (19 nm SW)
 
Loc | Ops | Rwys | IFR | FBO | Links
Com | Nav | Svcs | Stats | Notes
Aerial photo
No photo
 
Airport distance calculator
Flying to Detroit Border Patrol Heliport? Find the distance to fly.

From to MI96

Sunrise and sunset
Times for 23-Jan-2020
 Local
(UTC-5)
 Zulu
(UTC)
Morning civil twilight07:2412:24
Sunrise07:5512:55
Sunset17:3322:33
Evening civil twilight18:0323:03

Current date and time
Zulu (UTC)  23-Jan-2020 20:14:41
Local (UTC-5)  23-Jan-2020 15:14:41
 
METAR
KDET 
3nm NW 
231953Z 11005KT 10SM OVC110 02/M04 A3017 RMK AO2 SLP223 T00221044
CYQG 
5nm S 
231900Z AUTO 15004KT 9SM OVC130 02/M04 A3018 RMK SLP230
KVLL 
14nm NW 
231955Z AUTO 10005KT 10SM OVC090 03/M04 A3018 RMK AO2 T00271045
KMTC 
16nm NE 
231956Z 11005KT 10SM SCT100 BKN120 OVC200 02/M02 A3016 RMK AO2A SLP225 T00161017 $
KONZ 
18nm SW 
231956Z AUTO 12004KT 10SM OVC100 02/M04 A3016 RMK AO2 T00181040
KDTW 
18nm SW 
231953Z 09004KT 9SM FEW070 OVC100 02/M04 A3016 RMK AO2 SLP220 T00221039
TAF
KDET 
3nm NW 
231725Z 2318/2418 16007KT P6SM OVC120 FM240000 12005KT P6SM OVC080 FM240700 09005KT P6SM OVC050 TEMPO 2408/2412 P6SM -SHRA OVC025 FM241400 08010KT 5SM -RA BR OVC025
CYQG 
5nm S 
231738Z 2318/2418 15008KT P6SM OVC130 FM232100 11006KT P6SM SCT040 OVC090 FM240500 10005KT P6SM OVC030 TEMPO 2405/2413 P6SM -SHRA PROB30 2405/2413 5SM -FZRA BR OVC020 FM241300 09008KT 5SM -SHRA BR BKN015 OVC040 PROB30 2413/2416 OVC008 FM241600 09012KT 3SM -SHRA BR OVC008 PROB30 2416/2418 OVC005 RMK FCST BASED ON AUTO OBS. NXT FCST BY 240000Z
KMTC 
16nm NE 
231700Z 2317/2423 13006KT 9999 SCT100 BKN140 OVC200 621406 602002 QNH3016INS BECMG 2403/2404 09009KT 8000 -FZRA BKN020 OVC030 690002 620708 QNH3010INS TEMPO 2409/2411 4800 -RASN BKN010 OVC020 620101 BECMG 2409/2411 09010G15KT 9999 NSW FEW020 SCT040 QNH2995INS BECMG 2417/2418 10015G20KT 8000 -RA BKN020 OVC030 620708 520104 QNH2989INS BECMG 2419/2420 10015G20KT 6000 -RA BKN010 OVC020 620708 520104 QNH2986INS TX03/2320Z TNM02/2403Z
KDTW 
18nm SW 
231725Z 2318/2424 16007KT P6SM OVC120 FM240000 12005KT P6SM OVC080 FM240700 09005KT P6SM OVC050 TEMPO 2408/2412 P6SM -SHRA OVC025 FM241400 08010KT 5SM -RA BR OVC025 FM242100 09008KT 2SM -RA BR OVC015
NOTAMs
Click for the latest NOTAMs
NOTAMs are issued by the DoD/FAA and will open in a separate window not controlled by AirNav.

 

 
 

Would you like to see your business listed on this page?

 If your business provides an interesting product or service to pilots, flight crews, aircraft, or users of the Detroit Border Patrol Heliport, you should consider listing it here.  To start the listing process, click on the button below
 
Add a business
 

Other Pages about Detroit Border Patrol Heliport

Update a link
 
Copyright © AirNav, LLC. All rights reserved. Privacy Policy  Contact